Camilla Mitchell County Airport


Codes: KCXU/
Name: Camilla Mitchell County Airport
City: Camilla
Country: United States
Elevation: 175 ft.

Photos at Camilla Mitchell County Airport


   Photos courtesy of SpottingLog. You can add your own sightings and photos by signing up for a free trial today.



No photos found.

Weather at Camilla Mitchell County Airport


Time (UTC)DescriptionTempratureWindCloud coverageVisibilityPressureHumidity
16-Jun-2024 00:00Clear Sky35°C7 mph, NE0%10000m1012hPa48%
16-Jun-2024 03:00Clear Sky33°C13 mph, S9%10000m1013hPa54%
16-Jun-2024 06:00Clear Sky29°C4 mph, S9%10000m1014hPa70%
16-Jun-2024 09:00Clear Sky24°C2 mph, SE0%10000m1015hPa91%
16-Jun-2024 12:00Clear Sky25°C7 mph, SE1%10000m1017hPa86%
16-Jun-2024 15:00Clear Sky31°C9 mph, E5%10000m1017hPa54%
16-Jun-2024 18:00Clear Sky34°C11 mph, E5%10000m1017hPa39%
16-Jun-2024 21:00Overcast Clouds35°C11 mph, E99%10000m1015hPa33%
17-Jun-2024 00:00Light Rain27°C16 mph, S100%10000m1016hPa71%
17-Jun-2024 03:00Light Rain24°C4 mph, SE99%10000m1018hPa81%
17-Jun-2024 06:00Overcast Clouds25°C9 mph, E99%10000m1017hPa78%
17-Jun-2024 09:00Overcast Clouds23°C7 mph, E97%10000m1018hPa81%
17-Jun-2024 12:00Overcast Clouds24°C9 mph, E99%10000m1018hPa85%
17-Jun-2024 15:00Overcast Clouds29°C11 mph, E100%10000m1019hPa59%
17-Jun-2024 18:00Overcast Clouds33°C13 mph, E98%10000m1017hPa40%
17-Jun-2024 21:00Scattered Clouds34°C13 mph, E34%10000m1015hPa31%
18-Jun-2024 00:00Few Clouds30°C16 mph, E22%10000m1016hPa39%
18-Jun-2024 03:00Overcast Clouds27°C16 mph, E91%10000m1018hPa44%
18-Jun-2024 06:00Overcast Clouds24°C11 mph, E96%10000m1018hPa66%
18-Jun-2024 09:00Overcast Clouds22°C9 mph, E100%10000m1017hPa79%
18-Jun-2024 12:00Overcast Clouds23°C11 mph, E96%10000m1018hPa79%
18-Jun-2024 15:00Overcast Clouds28°C13 mph, E100%10000m1019hPa60%
18-Jun-2024 18:00Overcast Clouds33°C11 mph, E100%10000m1017hPa38%
18-Jun-2024 21:00Overcast Clouds32°C16 mph, E100%10000m1016hPa45%
19-Jun-2024 00:00Overcast Clouds29°C9 mph, NE100%10000m1016hPa53%
19-Jun-2024 03:00Overcast Clouds27°C13 mph, E100%10000m1018hPa51%
19-Jun-2024 06:00Overcast Clouds24°C13 mph, E100%10000m1019hPa70%
19-Jun-2024 09:00Overcast Clouds22°C9 mph, E100%10000m1019hPa74%
19-Jun-2024 12:00Overcast Clouds22°C9 mph, E100%10000m1020hPa76%
19-Jun-2024 15:00Overcast Clouds27°C16 mph, E100%10000m1020hPa62%
19-Jun-2024 18:00Overcast Clouds30°C16 mph, E100%10000m1019hPa50%
19-Jun-2024 21:00Overcast Clouds33°C18 mph, NE100%10000m1016hPa34%
20-Jun-2024 00:00Broken Clouds29°C18 mph, E83%10000m1018hPa55%
20-Jun-2024 03:00Clear Sky25°C13 mph, E3%10000m1019hPa53%
20-Jun-2024 06:00Scattered Clouds22°C7 mph, E32%10000m1020hPa79%
20-Jun-2024 09:00Clear Sky20°C9 mph, NE0%10000m1020hPa82%
20-Jun-2024 12:00Clear Sky22°C11 mph, NE0%10000m1020hPa81%
20-Jun-2024 15:00Clear Sky28°C13 mph, NE0%10000m1020hPa50%
20-Jun-2024 18:00Clear Sky31°C13 mph, NE0%10000m1019hPa40%
20-Jun-2024 21:00Scattered Clouds31°C13 mph, E28%10000m1018hPa48%